Aeroporto :
LOGIN :

Iscrizione | Disclaimer

   EN    FR    IT 

 










Sommario :    VFR   VFR Marginale   IFR   IFR Intensivo   IFR Molto Intensivo
Visibilità : 
Base nubi : 
>= 8 km
>= 3000ft
5 / 8 km
1000 / 3000 ft
1500m / 5 km
500 / 1000 ft
800 / 1500m
200 / 500 ft
< 800m
< 200 ft
Simboli :   Temporali  Nebbia  Neve Forte  Precipitazioni Forti  Vento > 20 kt
SIGMETs :   Varie  Temporali  Ghiacco  Turbolenza  Onda orograficha  Ceneri Vulcaniche







- Altitudine del aeroporto : 529 ft
- Codice IATA : CHR
- Carte del aeroporto


LFLX - Chateauroux

ULTIMO METAR :
  • 162030Z AUTO 03006KT CAVOK 15/13 Q1020 NOSIG

METARs OBSOLETI :
  • 162000Z AUTO 02006KT CAVOK 17/13 Q1020 NOSIG
  • 161930Z AUTO 03005KT CAVOK 18/13 Q1020 NOSIG
  • 161900Z AUTO 03005KT CAVOK 20/13 Q1020 NOSIG
  • 161830Z AUTO 04005KT CAVOK 21/12 Q1020 NOSIG
  • 161800Z AUTO 03006KT CAVOK 22/12 Q1020 NOSIG

TAF TAF LFLX
Valido dal 16 a 18 ore il 18 a 00 ore UTC


161700Z 1618/1724 VRB03KT CAVOK
BECMG 1618/1621 06005KT
Nessun NOTAM noto per questo aeroporto.



MetMap, La meteo Aeronautica in un colpo d'occhio ! - Copyright ORBIFLY Dicembre 2007 - Disclaimer

ORBIFLY MET'MAP TEAM :

Programmazione e sviluppo : Alexandra Zaïnal
Concezione e sviluppo : Baudouin d'Aumeries
Co-Programmazione e sviluppo : Marc-Olivier Méhu
Supporto tecnico e logistico : Manuel Goepfert
Aiuto per la traduzione : Arnaldo La Scala

Contatto : metmap@orbifly.com




FONTI E CREDITI :

   NOAA